sensor_id;sensor_type;location;lat;lon;timestamp;temperature;humidity
49238;DHT22;35069;47.906;1.892;2023-02-26T00:01:38;3.90;94.80
49238;DHT22;35069;47.906;1.892;2023-02-26T00:04:05;3.90;94.80
49238;DHT22;35069;47.906;1.892;2023-02-26T00:06:33;3.90;94.80
49238;DHT22;35069;47.906;1.892;2023-02-26T00:08:59;3.90;94.90
49238;DHT22;35069;47.906;1.892;2023-02-26T00:11:25;3.90;94.90
49238;DHT22;35069;47.906;1.892;2023-02-26T00:13:50;3.80;94.90
49238;DHT22;35069;47.906;1.892;2023-02-26T00:16:29;3.80;94.90
49238;DHT22;35069;47.906;1.892;2023-02-26T00:18:56;3.80;94.90
49238;DHT22;35069;47.906;1.892;2023-02-26T00:21:23;3.80;94.90
49238;DHT22;35069;47.906;1.892;2023-02-26T00:23:50;3.70;94.90
49238;DHT22;35069;47.906;1.892;2023-02-26T00:26:16;3.70;94.80
49238;DHT22;35069;47.906;1.892;2023-02-26T00:28:42;3.70;94.70
49238;DHT22;35069;47.906;1.892;2023-02-26T00:31:08;3.70;94.70
49238;DHT22;35069;47.906;1.892;2023-02-26T00:33:34;3.70;94.60
49238;DHT22;35069;47.906;1.892;2023-02-26T00:36:22;3.60;94.60
49238;DHT22;35069;47.906;1.892;2023-02-26T00:41:23;3.60;94.60
49238;DHT22;35069;47.906;1.892;2023-02-26T00:43:49;3.60;94.50
49238;DHT22;35069;47.906;1.892;2023-02-26T00:54:20;3.40;94.50
49238;DHT22;35069;47.906;1.892;2023-02-26T00:56:47;3.40;94.50
49238;DHT22;35069;47.906;1.892;2023-02-26T00:59:13;3.40;94.50
49238;DHT22;35069;47.906;1.892;2023-02-26T01:01:38;3.40;94.40
49238;DHT22;35069;47.906;1.892;2023-02-26T01:04:04;3.30;94.40
49238;DHT22;35069;47.906;1.892;2023-02-26T01:06:33;3.30;94.30
49238;DHT22;35069;47.906;1.892;2023-02-26T01:09:07;3.30;94.30
49238;DHT22;35069;47.906;1.892;2023-02-26T01:11:36;3.20;94.40
49238;DHT22;35069;47.906;1.892;2023-02-26T01:14:03;3.20;94.40
49238;DHT22;35069;47.906;1.892;2023-02-26T01:16:31;3.20;94.40
49238;DHT22;35069;47.906;1.892;2023-02-26T01:19:02;3.20;94.50
49238;DHT22;35069;47.906;1.892;2023-02-26T01:21:36;3.10;94.50
49238;DHT22;35069;47.906;1.892;2023-02-26T01:24:05;3.10;94.50
49238;DHT22;35069;47.906;1.892;2023-02-26T01:26:33;3.10;94.50
49238;DHT22;35069;47.906;1.892;2023-02-26T01:28:58;3.00;94.60
49238;DHT22;35069;47.906;1.892;2023-02-26T01:31:39;2.90;94.60
49238;DHT22;35069;47.906;1.892;2023-02-26T01:34:14;2.90;94.70
49238;DHT22;35069;47.906;1.892;2023-02-26T01:36:57;2.80;94.70
49238;DHT22;35069;47.906;1.892;2023-02-26T01:39:37;2.80;94.60
49238;DHT22;35069;47.906;1.892;2023-02-26T01:42:18;2.80;94.70
49238;DHT22;35069;47.906;1.892;2023-02-26T01:45:28;2.80;94.70
49238;DHT22;35069;47.906;1.892;2023-02-26T01:47:58;2.70;94.60
49238;DHT22;35069;47.906;1.892;2023-02-26T01:50:25;2.70;94.60
49238;DHT22;35069;47.906;1.892;2023-02-26T01:55:43;2.60;94.60
49238;DHT22;35069;47.906;1.892;2023-02-26T01:58:09;2.60;94.60
49238;DHT22;35069;47.906;1.892;2023-02-26T02:00:35;2.60;94.50
49238;DHT22;35069;47.906;1.892;2023-02-26T02:03:01;2.50;94.50
49238;DHT22;35069;47.906;1.892;2023-02-26T02:05:52;2.50;94.40
49238;DHT22;35069;47.906;1.892;2023-02-26T02:08:20;2.50;94.40
49238;DHT22;35069;47.906;1.892;2023-02-26T02:10:47;2.40;94.40
49238;DHT22;35069;47.906;1.892;2023-02-26T02:16:19;2.40;94.30
49238;DHT22;35069;47.906;1.892;2023-02-26T02:18:52;2.40;94.30
49238;DHT22;35069;47.906;1.892;2023-02-26T02:21:37;2.40;94.30
49238;DHT22;35069;47.906;1.892;2023-02-26T02:24:20;2.40;94.20
49238;DHT22;35069;47.906;1.892;2023-02-26T02:27:02;2.30;94.20
49238;DHT22;35069;47.906;1.892;2023-02-26T02:30:17;2.20;94.30
49238;DHT22;35069;47.906;1.892;2023-02-26T02:35:21;2.20;94.40
49238;DHT22;35069;47.906;1.892;2023-02-26T02:40:36;2.10;94.50
49238;DHT22;35069;47.906;1.892;2023-02-26T02:43:10;2.10;94.50
49238;DHT22;35069;47.906;1.892;2023-02-26T02:45:50;2.00;94.50
49238;DHT22;35069;47.906;1.892;2023-02-26T02:48:23;2.10;94.50
49238;DHT22;35069;47.906;1.892;2023-02-26T02:51:00;2.00;94.50
49238;DHT22;35069;47.906;1.892;2023-02-26T02:56:16;1.90;94.50
49238;DHT22;35069;47.906;1.892;2023-02-26T02:58:53;1.90;94.50
49238;DHT22;35069;47.906;1.892;2023-02-26T03:01:22;1.90;94.60
49238;DHT22;35069;47.906;1.892;2023-02-26T03:04:05;1.90;94.50
49238;DHT22;35069;47.906;1.892;2023-02-26T03:06:32;1.90;94.60
49238;DHT22;35069;47.906;1.892;2023-02-26T03:08:59;1.80;94.60
49238;DHT22;35069;47.906;1.892;2023-02-26T03:11:25;1.80;94.50
49238;DHT22;35069;47.906;1.892;2023-02-26T03:13:51;1.80;94.60
49238;DHT22;35069;47.906;1.892;2023-02-26T03:24:37;1.60;94.60
49238;DHT22;35069;47.906;1.892;2023-02-26T03:29:54;1.60;94.60
49238;DHT22;35069;47.906;1.892;2023-02-26T03:37:45;1.60;94.60
49238;DHT22;35069;47.906;1.892;2023-02-26T03:42:54;1.50;94.40
49238;DHT22;35069;47.906;1.892;2023-02-26T03:45:26;1.50;94.40
49238;DHT22;35069;47.906;1.892;2023-02-26T03:47:53;1.50;94.30
49238;DHT22;35069;47.906;1.892;2023-02-26T03:52:56;1.40;94.30
49238;DHT22;35069;47.906;1.892;2023-02-26T03:55:34;1.40;94.20
49238;DHT22;35069;47.906;1.892;2023-02-26T03:58:01;1.40;94.20
49238;DHT22;35069;47.906;1.892;2023-02-26T04:00:27;1.40;94.20
49238;DHT22;35069;47.906;1.892;2023-02-26T04:03:00;1.30;94.20
49238;DHT22;35069;47.906;1.892;2023-02-26T04:05:38;1.40;94.10
49238;DHT22;35069;47.906;1.892;2023-02-26T04:08:05;1.30;94.00
49238;DHT22;35069;47.906;1.892;2023-02-26T04:10:46;1.30;94.00
49238;DHT22;35069;47.906;1.892;2023-02-26T04:13:16;1.30;94.10
49238;DHT22;35069;47.906;1.892;2023-02-26T04:15:42;1.30;94.00
49238;DHT22;35069;47.906;1.892;2023-02-26T04:18:07;1.30;93.90
49238;DHT22;35069;47.906;1.892;2023-02-26T04:20:33;1.30;93.70
49238;DHT22;35069;47.906;1.892;2023-02-26T04:22:59;1.30;93.70
49238;DHT22;35069;47.906;1.892;2023-02-26T04:25:25;1.30;93.70
49238;DHT22;35069;47.906;1.892;2023-02-26T04:27:50;1.30;93.70
49238;DHT22;35069;47.906;1.892;2023-02-26T04:30:16;1.20;93.80
49238;DHT22;35069;47.906;1.892;2023-02-26T04:32:41;1.20;93.70
49238;DHT22;35069;47.906;1.892;2023-02-26T04:35:07;1.20;93.80
49238;DHT22;35069;47.906;1.892;2023-02-26T04:37:33;1.20;93.80
49238;DHT22;35069;47.906;1.892;2023-02-26T04:39:59;1.10;93.90
49238;DHT22;35069;47.906;1.892;2023-02-26T04:42:24;1.10;93.80
49238;DHT22;35069;47.906;1.892;2023-02-26T04:44:50;1.10;93.90
49238;DHT22;35069;47.906;1.892;2023-02-26T04:47:15;1.10;93.80
49238;DHT22;35069;47.906;1.892;2023-02-26T04:49:41;1.00;93.80
49238;DHT22;35069;47.906;1.892;2023-02-26T04:52:06;1.00;94.00
49238;DHT22;35069;47.906;1.892;2023-02-26T04:54:32;1.00;93.80
49238;DHT22;35069;47.906;1.892;2023-02-26T04:56:58;1.00;93.90
49238;DHT22;35069;47.906;1.892;2023-02-26T04:59:23;0.90;93.90
49238;DHT22;35069;47.906;1.892;2023-02-26T05:01:49;0.90;93.90
49238;DHT22;35069;47.906;1.892;2023-02-26T05:04:14;0.90;93.90
49238;DHT22;35069;47.906;1.892;2023-02-26T05:06:40;0.90;94.10
49238;DHT22;35069;47.906;1.892;2023-02-26T05:09:06;0.90;94.00
49238;DHT22;35069;47.906;1.892;2023-02-26T05:11:32;0.90;94.00
49238;DHT22;35069;47.906;1.892;2023-02-26T05:13:57;0.80;93.90
49238;DHT22;35069;47.906;1.892;2023-02-26T05:16:23;0.80;94.00
49238;DHT22;35069;47.906;1.892;2023-02-26T05:18:49;0.80;94.10
49238;DHT22;35069;47.906;1.892;2023-02-26T05:21:15;0.80;94.20
49238;DHT22;35069;47.906;1.892;2023-02-26T05:23:40;0.70;94.30
49238;DHT22;35069;47.906;1.892;2023-02-26T05:26:06;0.70;94.40
49238;DHT22;35069;47.906;1.892;2023-02-26T05:28:31;0.70;94.40
49238;DHT22;35069;47.906;1.892;2023-02-26T05:30:58;0.70;94.30
49238;DHT22;35069;47.906;1.892;2023-02-26T05:33:24;0.70;94.40
49238;DHT22;35069;47.906;1.892;2023-02-26T05:35:50;0.70;94.40
49238;DHT22;35069;47.906;1.892;2023-02-26T05:38:16;0.70;94.50
49238;DHT22;35069;47.906;1.892;2023-02-26T05:40:41;0.60;94.60
49238;DHT22;35069;47.906;1.892;2023-02-26T05:43:07;0.60;94.70
49238;DHT22;35069;47.906;1.892;2023-02-26T05:45:33;0.60;94.70
49238;DHT22;35069;47.906;1.892;2023-02-26T05:47:59;0.60;94.80
49238;DHT22;35069;47.906;1.892;2023-02-26T05:50:24;0.60;94.80
49238;DHT22;35069;47.906;1.892;2023-02-26T05:52:51;0.60;94.80
49238;DHT22;35069;47.906;1.892;2023-02-26T05:55:17;0.60;94.90
49238;DHT22;35069;47.906;1.892;2023-02-26T05:57:42;0.60;94.80
49238;DHT22;35069;47.906;1.892;2023-02-26T06:00:09;0.50;94.80
49238;DHT22;35069;47.906;1.892;2023-02-26T06:02:35;0.50;94.90
49238;DHT22;35069;47.906;1.892;2023-02-26T06:05:00;0.50;94.80
49238;DHT22;35069;47.906;1.892;2023-02-26T06:07:26;0.50;94.90
49238;DHT22;35069;47.906;1.892;2023-02-26T06:09:52;0.50;94.90
49238;DHT22;35069;47.906;1.892;2023-02-26T06:12:17;0.50;95.00
49238;DHT22;35069;47.906;1.892;2023-02-26T06:14:43;0.50;95.00
49238;DHT22;35069;47.906;1.892;2023-02-26T06:17:09;0.50;95.10
49238;DHT22;35069;47.906;1.892;2023-02-26T06:19:34;0.50;95.00
49238;DHT22;35069;47.906;1.892;2023-02-26T06:22:00;0.50;95.00
49238;DHT22;35069;47.906;1.892;2023-02-26T06:24:26;0.40;95.10
49238;DHT22;35069;47.906;1.892;2023-02-26T06:26:51;0.40;95.10
49238;DHT22;35069;47.906;1.892;2023-02-26T06:29:17;0.50;95.10
49238;DHT22;35069;47.906;1.892;2023-02-26T06:31:45;0.40;95.10
49238;DHT22;35069;47.906;1.892;2023-02-26T06:34:10;0.50;95.10
49238;DHT22;35069;47.906;1.892;2023-02-26T06:36:36;0.40;95.10
49238;DHT22;35069;47.906;1.892;2023-02-26T06:39:02;0.50;95.10
49238;DHT22;35069;47.906;1.892;2023-02-26T06:41:28;0.50;95.10
49238;DHT22;35069;47.906;1.892;2023-02-26T06:43:54;0.50;95.10
49238;DHT22;35069;47.906;1.892;2023-02-26T06:46:19;0.60;95.10
49238;DHT22;35069;47.906;1.892;2023-02-26T06:48:45;0.60;95.00
49238;DHT22;35069;47.906;1.892;2023-02-26T06:51:11;0.60;95.00
49238;DHT22;35069;47.906;1.892;2023-02-26T06:53:36;0.60;95.00
49238;DHT22;35069;47.906;1.892;2023-02-26T06:56:02;0.70;95.00
49238;DHT22;35069;47.906;1.892;2023-02-26T06:58:28;0.70;94.90
49238;DHT22;35069;47.906;1.892;2023-02-26T07:00:53;0.80;94.90
49238;DHT22;35069;47.906;1.892;2023-02-26T07:03:19;0.80;94.90
49238;DHT22;35069;47.906;1.892;2023-02-26T07:05:45;0.90;94.80
49238;DHT22;35069;47.906;1.892;2023-02-26T07:08:11;1.00;94.70
49238;DHT22;35069;47.906;1.892;2023-02-26T07:10:38;1.10;94.70
49238;DHT22;35069;47.906;1.892;2023-02-26T07:13:04;1.60;94.90
49238;DHT22;35069;47.906;1.892;2023-02-26T07:15:30;2.40;94.00
49238;DHT22;35069;47.906;1.892;2023-02-26T07:17:56;4.20;93.40
49238;DHT22;35069;47.906;1.892;2023-02-26T07:20:24;7.00;90.80
49238;DHT22;35069;47.906;1.892;2023-02-26T07:22:50;9.30;84.70
49238;DHT22;35069;47.906;1.892;2023-02-26T07:25:16;11.10;75.80
49238;DHT22;35069;47.906;1.892;2023-02-26T07:27:41;12.50;72.30
49238;DHT22;35069;47.906;1.892;2023-02-26T07:30:08;13.50;68.40
49238;DHT22;35069;47.906;1.892;2023-02-26T07:32:34;14.30;66.20
49238;DHT22;35069;47.906;1.892;2023-02-26T07:35:00;14.40;65.80
49238;DHT22;35069;47.906;1.892;2023-02-26T07:37:25;14.30;62.90
49238;DHT22;35069;47.906;1.892;2023-02-26T07:39:52;15.00;60.70
49238;DHT22;35069;47.906;1.892;2023-02-26T07:42:18;16.30;58.40
49238;DHT22;35069;47.906;1.892;2023-02-26T07:44:44;17.00;54.00
49238;DHT22;35069;47.906;1.892;2023-02-26T07:47:12;18.00;51.50
49238;DHT22;35069;47.906;1.892;2023-02-26T07:49:38;19.40;50.90
49238;DHT22;35069;47.906;1.892;2023-02-26T07:52:04;20.40;47.80
49238;DHT22;35069;47.906;1.892;2023-02-26T07:54:33;21.50;46.80
49238;DHT22;35069;47.906;1.892;2023-02-26T07:56:58;22.00;44.30
49238;DHT22;35069;47.906;1.892;2023-02-26T07:59:24;22.20;42.70
49238;DHT22;35069;47.906;1.892;2023-02-26T08:01:50;22.10;42.00
49238;DHT22;35069;47.906;1.892;2023-02-26T08:04:16;21.80;40.60
49238;DHT22;35069;47.906;1.892;2023-02-26T08:06:43;20.80;41.40
49238;DHT22;35069;47.906;1.892;2023-02-26T08:09:08;20.60;42.90
49238;DHT22;35069;47.906;1.892;2023-02-26T08:11:34;21.40;42.70
49238;DHT22;35069;47.906;1.892;2023-02-26T08:14:04;21.60;40.50
49238;DHT22;35069;47.906;1.892;2023-02-26T08:16:30;21.30;38.90
49238;DHT22;35069;47.906;1.892;2023-02-26T08:18:55;17.50;39.10
49238;DHT22;35069;47.906;1.892;2023-02-26T08:21:22;14.00;41.70
49238;DHT22;35069;47.906;1.892;2023-02-26T08:23:47;11.30;45.60
49238;DHT22;35069;47.906;1.892;2023-02-26T08:26:13;9.10;49.50
49238;DHT22;35069;47.906;1.892;2023-02-26T08:28:39;7.70;52.10
49238;DHT22;35069;47.906;1.892;2023-02-26T08:31:05;6.70;54.90
49238;DHT22;35069;47.906;1.892;2023-02-26T08:33:31;5.90;57.20
49238;DHT22;35069;47.906;1.892;2023-02-26T08:35:57;5.60;58.30
49238;DHT22;35069;47.906;1.892;2023-02-26T08:38:24;5.20;59.80
49238;DHT22;35069;47.906;1.892;2023-02-26T08:40:49;5.00;61.00
49238;DHT22;35069;47.906;1.892;2023-02-26T08:43:17;4.70;62.00
49238;DHT22;35069;47.906;1.892;2023-02-26T08:45:44;4.50;62.50
49238;DHT22;35069;47.906;1.892;2023-02-26T08:48:10;4.30;63.00
49238;DHT22;35069;47.906;1.892;2023-02-26T08:50:35;4.20;63.70
49238;DHT22;35069;47.906;1.892;2023-02-26T08:53:01;4.20;63.60
49238;DHT22;35069;47.906;1.892;2023-02-26T08:55:27;4.00;63.40
49238;DHT22;35069;47.906;1.892;2023-02-26T08:57:53;4.00;64.20
49238;DHT22;35069;47.906;1.892;2023-02-26T09:00:18;4.00;64.30
49238;DHT22;35069;47.906;1.892;2023-02-26T09:02:45;3.90;63.90
49238;DHT22;35069;47.906;1.892;2023-02-26T09:05:11;4.00;64.30
49238;DHT22;35069;47.906;1.892;2023-02-26T09:07:37;3.80;64.30
49238;DHT22;35069;47.906;1.892;2023-02-26T09:10:04;3.90;65.10
49238;DHT22;35069;47.906;1.892;2023-02-26T09:12:30;3.90;64.50
49238;DHT22;35069;47.906;1.892;2023-02-26T09:14:55;4.00;64.70
49238;DHT22;35069;47.906;1.892;2023-02-26T09:17:24;4.00;63.80
49238;DHT22;35069;47.906;1.892;2023-02-26T09:19:50;3.80;64.00
49238;DHT22;35069;47.906;1.892;2023-02-26T09:22:16;3.90;64.40
49238;DHT22;35069;47.906;1.892;2023-02-26T09:24:41;3.90;63.70
49238;DHT22;35069;47.906;1.892;2023-02-26T09:27:07;3.90;63.50
49238;DHT22;35069;47.906;1.892;2023-02-26T09:29:33;4.20;64.10
49238;DHT22;35069;47.906;1.892;2023-02-26T09:31:59;4.30;64.00
49238;DHT22;35069;47.906;1.892;2023-02-26T09:34:24;4.70;64.00
49238;DHT22;35069;47.906;1.892;2023-02-26T09:36:50;5.00;62.90
49238;DHT22;35069;47.906;1.892;2023-02-26T09:39:15;5.30;61.00
49238;DHT22;35069;47.906;1.892;2023-02-26T09:41:49;5.80;63.30
49238;DHT22;35069;47.906;1.892;2023-02-26T09:44:31;6.40;65.80
49238;DHT22;35069;47.906;1.892;2023-02-26T09:47:04;7.20;66.30
49238;DHT22;35069;47.906;1.892;2023-02-26T09:50:12;7.90;68.00
49238;DHT22;35069;47.906;1.892;2023-02-26T09:53:02;9.00;53.90
49238;DHT22;35069;47.906;1.892;2023-02-26T09:55:36;9.90;57.30
49238;DHT22;35069;47.906;1.892;2023-02-26T09:58:10;11.90;54.50
49238;DHT22;35069;47.906;1.892;2023-02-26T10:00:57;12.30;51.20
49238;DHT22;35069;47.906;1.892;2023-02-26T10:06:25;13.00;43.90
49238;DHT22;35069;47.906;1.892;2023-02-26T10:14:25;15.10;39.40
49238;DHT22;35069;47.906;1.892;2023-02-26T10:16:56;13.90;40.40
49238;DHT22;35069;47.906;1.892;2023-02-26T10:19:29;13.40;42.30
49238;DHT22;35069;47.906;1.892;2023-02-26T10:22:00;12.20;42.70
49238;DHT22;35069;47.906;1.892;2023-02-26T10:25:14;12.60;44.60
49238;DHT22;35069;47.906;1.892;2023-02-26T10:30:38;10.80;41.10
49238;DHT22;35069;47.906;1.892;2023-02-26T10:33:52;9.70;44.00
49238;DHT22;35069;47.906;1.892;2023-02-26T10:36:32;10.20;43.50
49238;DHT22;35069;47.906;1.892;2023-02-26T10:42:00;8.50;45.30
49238;DHT22;35069;47.906;1.892;2023-02-26T10:47:01;8.80;47.20
49238;DHT22;35069;47.906;1.892;2023-02-26T10:50:00;8.90;46.80
49238;DHT22;35069;47.906;1.892;2023-02-26T10:52:29;10.80;47.40
49238;DHT22;35069;47.906;1.892;2023-02-26T10:57:30;10.10;45.60
49238;DHT22;35069;47.906;1.892;2023-02-26T10:59:58;11.20;47.70
49238;DHT22;35069;47.906;1.892;2023-02-26T11:02:39;12.80;46.90
49238;DHT22;35069;47.906;1.892;2023-02-26T11:05:16;13.70;43.00
49238;DHT22;35069;47.906;1.892;2023-02-26T11:07:46;12.80;42.70
49238;DHT22;35069;47.906;1.892;2023-02-26T11:10:18;12.30;44.20
49238;DHT22;35069;47.906;1.892;2023-02-26T11:12:44;14.10;44.30
49238;DHT22;35069;47.906;1.892;2023-02-26T11:15:15;15.80;43.70
49238;DHT22;35069;47.906;1.892;2023-02-26T11:17:41;16.00;43.40
49238;DHT22;35069;47.906;1.892;2023-02-26T11:20:35;15.30;41.20
49238;DHT22;35069;47.906;1.892;2023-02-26T11:23:03;15.00;39.70
49238;DHT22;35069;47.906;1.892;2023-02-26T11:25:31;13.50;41.50
49238;DHT22;35069;47.906;1.892;2023-02-26T11:28:06;14.20;44.20
49238;DHT22;35069;47.906;1.892;2023-02-26T11:30:37;15.30;44.00
49238;DHT22;35069;47.906;1.892;2023-02-26T11:33:12;15.40;40.90
49238;DHT22;35069;47.906;1.892;2023-02-26T11:35:40;15.10;41.40
49238;DHT22;35069;47.906;1.892;2023-02-26T11:38:14;16.10;45.10
49238;DHT22;35069;47.906;1.892;2023-02-26T11:40:47;15.80;39.40
49238;DHT22;35069;47.906;1.892;2023-02-26T11:43:24;14.00;39.00
49238;DHT22;35069;47.906;1.892;2023-02-26T11:45:59;13.40;40.50
49238;DHT22;35069;47.906;1.892;2023-02-26T11:48:37;14.10;41.40
49238;DHT22;35069;47.906;1.892;2023-02-26T11:51:04;12.70;38.10
49238;DHT22;35069;47.906;1.892;2023-02-26T11:53:35;11.90;40.40
49238;DHT22;35069;47.906;1.892;2023-02-26T11:56:33;12.00;42.60
49238;DHT22;35069;47.906;1.892;2023-02-26T11:59:32;12.30;38.50
49238;DHT22;35069;47.906;1.892;2023-02-26T12:02:14;12.30;41.80
49238;DHT22;35069;47.906;1.892;2023-02-26T12:04:45;12.50;40.70
49238;DHT22;35069;47.906;1.892;2023-02-26T12:07:13;12.10;39.90
49238;DHT22;35069;47.906;1.892;2023-02-26T12:09:40;12.10;39.20
49238;DHT22;35069;47.906;1.892;2023-02-26T12:17:58;11.80;43.50
49238;DHT22;35069;47.906;1.892;2023-02-26T12:25:38;10.90;37.80
49238;DHT22;35069;47.906;1.892;2023-02-26T12:28:26;9.90;40.30
49238;DHT22;35069;47.906;1.892;2023-02-26T12:33:56;10.40;40.00
49238;DHT22;35069;47.906;1.892;2023-02-26T12:36:54;10.20;40.60
49238;DHT22;35069;47.906;1.892;2023-02-26T13:01:03;7.70;36.60
49238;DHT22;35069;47.906;1.892;2023-02-26T13:06:37;7.40;37.20
49238;DHT22;35069;47.906;1.892;2023-02-26T13:15:06;7.00;39.50
49238;DHT22;35069;47.906;1.892;2023-02-26T13:17:49;7.00;41.00
49238;DHT22;35069;47.906;1.892;2023-02-26T13:20:24;7.00;40.80
49238;DHT22;35069;47.906;1.892;2023-02-26T13:23:11;7.00;40.40
49238;DHT22;35069;47.906;1.892;2023-02-26T13:25:43;6.90;40.90
49238;DHT22;35069;47.906;1.892;2023-02-26T13:28:42;6.80;40.70
49238;DHT22;35069;47.906;1.892;2023-02-26T13:31:28;6.50;41.60
49238;DHT22;35069;47.906;1.892;2023-02-26T13:33:58;6.40;41.70
49238;DHT22;35069;47.906;1.892;2023-02-26T13:36:27;6.30;41.90
49238;DHT22;35069;47.906;1.892;2023-02-26T13:52:35;6.50;42.80
49238;DHT22;35069;47.906;1.892;2023-02-26T13:55:43;6.40;43.10
49238;DHT22;35069;47.906;1.892;2023-02-26T13:58:39;6.40;43.50
49238;DHT22;35069;47.906;1.892;2023-02-26T14:06:37;6.20;44.20
49238;DHT22;35069;47.906;1.892;2023-02-26T14:15:16;6.10;44.80
49238;DHT22;35069;47.906;1.892;2023-02-26T14:20:21;6.50;44.80
49238;DHT22;35069;47.906;1.892;2023-02-26T14:25:39;6.30;45.10
49238;DHT22;35069;47.906;1.892;2023-02-26T14:30:52;6.70;45.60
49238;DHT22;35069;47.906;1.892;2023-02-26T14:33:28;6.50;45.20
49238;DHT22;35069;47.906;1.892;2023-02-26T14:35:54;6.10;45.10
49238;DHT22;35069;47.906;1.892;2023-02-26T14:38:30;5.80;45.80
49238;DHT22;35069;47.906;1.892;2023-02-26T14:41:10;5.80;46.40
49238;DHT22;35069;47.906;1.892;2023-02-26T14:43:51;5.80;46.70
49238;DHT22;35069;47.906;1.892;2023-02-26T14:46:20;5.70;47.00
49238;DHT22;35069;47.906;1.892;2023-02-26T14:48:49;5.80;46.70
49238;DHT22;35069;47.906;1.892;2023-02-26T14:57:13;6.00;45.00
49238;DHT22;35069;47.906;1.892;2023-02-26T15:02:29;5.60;46.00
49238;DHT22;35069;47.906;1.892;2023-02-26T15:10:55;5.60;46.10
49238;DHT22;35069;47.906;1.892;2023-02-26T15:13:48;5.50;46.60
49238;DHT22;35069;47.906;1.892;2023-02-26T15:16:37;5.40;47.00
49238;DHT22;35069;47.906;1.892;2023-02-26T15:24:48;5.60;47.90
49238;DHT22;35069;47.906;1.892;2023-02-26T15:27:16;5.70;47.90
49238;DHT22;35069;47.906;1.892;2023-02-26T15:29:42;5.80;47.60
49238;DHT22;35069;47.906;1.892;2023-02-26T15:34:53;5.70;47.30
49238;DHT22;35069;47.906;1.892;2023-02-26T15:37:25;5.70;47.40
49238;DHT22;35069;47.906;1.892;2023-02-26T15:39:51;5.60;47.20
49238;DHT22;35069;47.906;1.892;2023-02-26T15:42:19;5.60;47.30
49238;DHT22;35069;47.906;1.892;2023-02-26T15:44:46;5.60;48.20
49238;DHT22;35069;47.906;1.892;2023-02-26T15:47:14;5.70;47.60
49238;DHT22;35069;47.906;1.892;2023-02-26T15:49:43;5.70;46.80
49238;DHT22;35069;47.906;1.892;2023-02-26T15:52:13;5.60;47.20
49238;DHT22;35069;47.906;1.892;2023-02-26T15:54:46;5.50;47.30
49238;DHT22;35069;47.906;1.892;2023-02-26T15:57:14;5.50;47.50
49238;DHT22;35069;47.906;1.892;2023-02-26T15:59:46;5.30;47.60
49238;DHT22;35069;47.906;1.892;2023-02-26T16:02:14;5.40;48.00
49238;DHT22;35069;47.906;1.892;2023-02-26T16:04:41;5.40;47.70
49238;DHT22;35069;47.906;1.892;2023-02-26T16:07:09;5.40;47.50
49238;DHT22;35069;47.906;1.892;2023-02-26T16:09:50;5.40;47.60
49238;DHT22;35069;47.906;1.892;2023-02-26T16:12:37;5.40;47.60
49238;DHT22;35069;47.906;1.892;2023-02-26T16:15:11;5.30;47.80
49238;DHT22;35069;47.906;1.892;2023-02-26T16:17:46;5.20;48.10
49238;DHT22;35069;47.906;1.892;2023-02-26T16:20:19;5.10;48.20
49238;DHT22;35069;47.906;1.892;2023-02-26T16:22:53;5.20;48.70
49238;DHT22;35069;47.906;1.892;2023-02-26T16:25:30;5.30;48.60
49238;DHT22;35069;47.906;1.892;2023-02-26T16:28:05;5.50;48.70
49238;DHT22;35069;47.906;1.892;2023-02-26T16:31:16;5.50;48.80
49238;DHT22;35069;47.906;1.892;2023-02-26T16:59:33;4.90;49.70
49238;DHT22;35069;47.906;1.892;2023-02-26T17:02:16;4.80;50.20
49238;DHT22;35069;47.906;1.892;2023-02-26T17:07:33;4.70;50.30
49238;DHT22;35069;47.906;1.892;2023-02-26T17:10:28;4.60;50.60
49238;DHT22;35069;47.906;1.892;2023-02-26T17:13:17;4.60;50.90
49238;DHT22;35069;47.906;1.892;2023-02-26T17:15:45;4.50;51.10
49238;DHT22;35069;47.906;1.892;2023-02-26T17:18:19;4.40;50.90
49238;DHT22;35069;47.906;1.892;2023-02-26T17:20:45;4.30;51.00
49238;DHT22;35069;47.906;1.892;2023-02-26T17:23:16;4.30;51.50
49238;DHT22;35069;47.906;1.892;2023-02-26T17:25:45;4.30;51.50
49238;DHT22;35069;47.906;1.892;2023-02-26T17:28:23;4.20;51.60
49238;DHT22;35069;47.906;1.892;2023-02-26T17:30:49;4.20;51.70
49238;DHT22;35069;47.906;1.892;2023-02-26T17:33:15;4.20;51.90
49238;DHT22;35069;47.906;1.892;2023-02-26T17:35:41;4.20;52.00
49238;DHT22;35069;47.906;1.892;2023-02-26T17:38:11;4.20;52.20
49238;DHT22;35069;47.906;1.892;2023-02-26T17:40:38;4.10;52.30
49238;DHT22;35069;47.906;1.892;2023-02-26T17:43:05;4.10;52.40
49238;DHT22;35069;47.906;1.892;2023-02-26T17:45:33;4.00;52.30
49238;DHT22;35069;47.906;1.892;2023-02-26T17:47:59;4.00;52.70
49238;DHT22;35069;47.906;1.892;2023-02-26T17:53:09;3.80;53.00
49238;DHT22;35069;47.906;1.892;2023-02-26T17:55:35;3.80;53.30
49238;DHT22;35069;47.906;1.892;2023-02-26T17:58:05;3.70;53.30
49238;DHT22;35069;47.906;1.892;2023-02-26T18:00:30;3.70;53.80
49238;DHT22;35069;47.906;1.892;2023-02-26T18:02:58;3.60;54.20
49238;DHT22;35069;47.906;1.892;2023-02-26T18:05:24;3.60;54.20
49238;DHT22;35069;47.906;1.892;2023-02-26T18:07:52;3.60;54.30
49238;DHT22;35069;47.906;1.892;2023-02-26T18:10:20;3.50;54.50
49238;DHT22;35069;47.906;1.892;2023-02-26T18:12:46;3.50;54.80
49238;DHT22;35069;47.906;1.892;2023-02-26T18:15:13;3.50;54.40
49238;DHT22;35069;47.906;1.892;2023-02-26T18:17:39;3.50;54.90
49238;DHT22;35069;47.906;1.892;2023-02-26T18:20:06;3.40;54.80
49238;DHT22;35069;47.906;1.892;2023-02-26T18:22:34;3.40;54.90
49238;DHT22;35069;47.906;1.892;2023-02-26T18:25:00;3.40;55.20
49238;DHT22;35069;47.906;1.892;2023-02-26T18:27:26;3.30;55.30
49238;DHT22;35069;47.906;1.892;2023-02-26T18:29:52;3.30;55.50
49238;DHT22;35069;47.906;1.892;2023-02-26T18:32:21;3.30;55.20
49238;DHT22;35069;47.906;1.892;2023-02-26T18:34:48;3.20;55.10
49238;DHT22;35069;47.906;1.892;2023-02-26T18:37:17;3.20;55.50
49238;DHT22;35069;47.906;1.892;2023-02-26T18:39:44;3.20;55.60
49238;DHT22;35069;47.906;1.892;2023-02-26T18:42:19;3.20;56.00
49238;DHT22;35069;47.906;1.892;2023-02-26T18:44:45;3.20;56.40
49238;DHT22;35069;47.906;1.892;2023-02-26T18:47:11;3.10;56.20
49238;DHT22;35069;47.906;1.892;2023-02-26T18:49:36;3.10;56.50
49238;DHT22;35069;47.906;1.892;2023-02-26T18:52:02;3.00;56.30
49238;DHT22;35069;47.906;1.892;2023-02-26T18:54:27;3.00;56.60
49238;DHT22;35069;47.906;1.892;2023-02-26T18:56:53;3.00;56.80
49238;DHT22;35069;47.906;1.892;2023-02-26T18:59:19;2.90;56.70
49238;DHT22;35069;47.906;1.892;2023-02-26T19:01:45;2.90;56.90
49238;DHT22;35069;47.906;1.892;2023-02-26T19:04:10;2.90;56.80
49238;DHT22;35069;47.906;1.892;2023-02-26T19:06:36;2.90;57.10
49238;DHT22;35069;47.906;1.892;2023-02-26T19:09:02;2.80;56.90
49238;DHT22;35069;47.906;1.892;2023-02-26T19:11:29;2.80;57.10
49238;DHT22;35069;47.906;1.892;2023-02-26T19:13:54;2.80;57.10
49238;DHT22;35069;47.906;1.892;2023-02-26T19:16:20;2.80;57.20
49238;DHT22;35069;47.906;1.892;2023-02-26T19:18:48;2.80;57.00
49238;DHT22;35069;47.906;1.892;2023-02-26T19:21:14;2.70;57.30